Time;durP1;ratioP1;P1;durP2;ratioP2;P2;SDS_P1;SDS_P2;PMS_P1;PMS_P2;Temp;Humidity;BMP_temperature;BMP_pressure;BME280_temperature;BME280_humidity;BME280_pressure;Samples;Min_cycle;Max_cycle;Signal;HPM_P1;HPM_P2
2021/08/13 00:00:26;;;;;;;13.45;12.05;;;21.50;99.90;;;;;;5050157;28;20481;-73
2021/08/13 00:02:51;;;;;;;14.35;12.63;;;21.50;99.90;;;;;;5043203;28;20057;-73
2021/08/13 00:05:17;;;;;;;14.38;12.85;;;21.50;99.90;;;;;;5051201;28;20093;-74
2021/08/13 00:07:43;;;;;;;13.85;12.07;;;21.50;99.90;;;;;;5042349;28;20426;-73
2021/08/13 00:10:09;;;;;;;13.48;11.93;;;21.50;99.90;;;;;;5043632;28;20520;-73
2021/08/13 00:12:35;;;;;;;15.25;13.75;;;21.40;99.90;;;;;;5047133;28;20023;-73
2021/08/13 00:15:01;;;;;;;15.95;12.77;;;21.40;99.90;;;;;;5038869;28;20092;-73
2021/08/13 00:17:27;;;;;;;16.50;12.98;;;21.40;99.90;;;;;;5041969;28;20025;-73
2021/08/13 00:19:54;;;;;;;13.07;11.77;;;21.40;99.90;;;;;;5048051;28;20021;-73
2021/08/13 00:22:19;;;;;;;14.63;12.68;;;21.40;99.90;;;;;;5042456;28;20072;-72
2021/08/13 00:24:46;;;;;;;12.77;11.30;;;21.30;99.90;;;;;;5052000;28;20024;-73
2021/08/13 00:27:11;;;;;;;15.82;12.05;;;21.30;99.90;;;;;;5039493;28;20029;-72
2021/08/13 00:29:37;;;;;;;17.10;12.27;;;21.30;99.90;;;;;;5039817;28;20045;-72
2021/08/13 00:32:03;;;;;;;15.93;11.55;;;21.30;99.90;;;;;;5044955;28;20021;-73
2021/08/13 00:34:29;;;;;;;12.68;11.35;;;21.30;99.90;;;;;;5047992;28;20148;-73
2021/08/13 00:36:55;;;;;;;15.63;12.25;;;21.30;99.90;;;;;;5045790;28;20017;-73
2021/08/13 00:39:20;;;;;;;13.05;11.23;;;21.20;99.90;;;;;;5046359;28;20021;-72
2021/08/13 00:41:46;;;;;;;13.93;11.95;;;21.20;99.90;;;;;;5051666;28;20420;-72
2021/08/13 00:44:11;;;;;;;12.88;10.88;;;21.20;99.90;;;;;;5046823;28;20021;-72
2021/08/13 00:46:37;;;;;;;14.57;11.45;;;21.10;99.90;;;;;;5048744;28;20025;-72
2021/08/13 00:49:03;;;;;;;12.32;11.02;;;21.10;99.90;;;;;;5049688;28;20033;-72
2021/08/13 00:51:29;;;;;;;12.38;11.07;;;21.10;99.90;;;;;;5044907;28;20112;-72
2021/08/13 00:53:55;;;;;;;16.95;11.77;;;21.10;99.90;;;;;;5044249;28;20176;-72
2021/08/13 00:56:21;;;;;;;15.85;13.23;;;21.10;99.90;;;;;;5048173;28;20021;-73
2021/08/13 00:58:47;;;;;;;15.77;14.18;;;21.10;99.90;;;;;;5050640;28;20020;-73
2021/08/13 01:01:13;;;;;;;16.70;13.90;;;21.10;99.90;;;;;;5045526;28;20033;-72
2021/08/13 01:03:39;;;;;;;17.85;14.82;;;21.10;99.90;;;;;;5026654;28;20376;-72
2021/08/13 01:06:13;;;;;;;15.70;13.52;;;21.10;99.90;;;;;;5046451;28;20032;-72
2021/08/13 01:08:40;;;;;;;14.57;13.18;;;21.10;99.90;;;;;;5050375;28;20049;-71
2021/08/13 01:11:24;;;;;;;16.40;14.77;;;21.10;99.90;;;;;;5046245;28;20385;-72
2021/08/13 01:14:01;;;;;;;21.77;18.17;;;21.10;99.90;;;;;;5045661;28;20025;-72
2021/08/13 01:16:28;;;;;;;17.52;15.73;;;21.00;99.90;;;;;;5045210;28;20029;-73
2021/08/13 01:19:08;;;;;;;18.55;16.17;;;21.10;99.90;;;;;;5041887;28;20029;-73
2021/08/13 01:21:41;;;;;;;19.95;15.82;;;21.10;99.90;;;;;;5035846;28;20026;-73
2021/08/13 01:24:23;;;;;;;22.08;19.00;;;21.10;99.90;;;;;;5040629;28;20032;-72
2021/08/13 01:26:58;;;;;;;18.05;15.90;;;21.10;99.90;;;;;;5044537;28;20029;-73
2021/08/13 01:29:33;;;;;;;19.85;15.73;;;21.10;99.90;;;;;;5048283;28;20021;-73
2021/08/13 01:32:15;;;;;;;22.67;16.02;;;21.20;99.90;;;;;;5044493;28;20030;-72
2021/08/13 01:34:48;;;;;;;21.38;18.17;;;21.20;99.90;;;;;;5043820;28;20029;-72
2021/08/13 01:37:14;;;;;;;22.05;19.02;;;21.20;99.90;;;;;;5044034;28;20041;-72
2021/08/13 01:39:42;;;;;;;22.55;20.15;;;21.20;99.90;;;;;;5052994;28;20017;-73
2021/08/13 01:42:09;;;;;;;24.98;19.90;;;21.20;99.90;;;;;;5047781;28;20020;-72
2021/08/13 01:44:36;;;;;;;24.83;18.95;;;21.20;99.90;;;;;;5042950;28;20053;-73
2021/08/13 01:47:02;;;;;;;23.13;19.58;;;21.00;99.90;;;;;;5038447;28;20068;-72
2021/08/13 01:49:30;;;;;;;24.05;20.20;;;21.00;99.90;;;;;;5045820;28;20021;-72
2021/08/13 01:51:57;;;;;;;22.27;19.38;;;21.10;99.90;;;;;;5049117;28;20016;-73
2021/08/13 01:54:24;;;;;;;23.42;19.83;;;21.00;99.90;;;;;;5047672;28;20068;-74
2021/08/13 01:56:50;;;;;;;24.65;19.55;;;21.00;99.90;;;;;;5049230;28;20044;-72
2021/08/13 01:59:16;;;;;;;25.35;20.13;;;21.00;99.90;;;;;;5049562;28;20040;-73
2021/08/13 02:01:42;;;;;;;23.77;20.42;;;21.00;99.90;;;;;;5042585;28;20025;-73
2021/08/13 02:04:08;;;;;;;23.15;20.63;;;21.00;99.90;;;;;;5047084;28;20374;-73
2021/08/13 02:06:35;;;;;;;22.83;18.83;;;21.00;99.90;;;;;;5045690;28;20025;-73
2021/08/13 02:09:03;;;;;;;24.35;19.92;;;21.00;99.90;;;;;;5048892;28;20076;-73
2021/08/13 02:11:30;;;;;;;24.90;22.10;;;20.90;99.90;;;;;;5050872;28;20358;-72
2021/08/13 02:13:56;;;;;;;24.45;19.35;;;20.90;99.90;;;;;;5051984;28;20021;-73
2021/08/13 02:16:26;;;;;;;28.73;19.35;;;20.80;99.90;;;;;;5044607;28;20024;-73
2021/08/13 02:19:05;;;;;;;22.65;17.77;;;20.80;99.90;;;;;;5048921;28;20076;-73
2021/08/13 02:21:36;;;;;;;23.58;18.83;;;20.80;99.90;;;;;;5044017;28;20033;-72
2021/08/13 02:24:01;;;;;;;23.00;20.52;;;20.80;99.90;;;;;;5043729;28;20084;-73
2021/08/13 02:26:27;;;;;;;27.33;20.70;;;20.80;99.90;;;;;;5039860;28;20485;-73
2021/08/13 02:28:53;;;;;;;26.85;21.45;;;20.80;99.90;;;;;;5043133;28;20041;-73
2021/08/13 02:31:19;;;;;;;22.33;19.15;;;20.80;99.90;;;;;;5047078;28;20034;-73
2021/08/13 02:33:44;;;;;;;26.40;20.15;;;20.80;99.90;;;;;;5046772;28;20432;-72
2021/08/13 02:36:15;;;;;;;33.05;25.88;;;20.80;99.90;;;;;;5048472;28;20028;-73
2021/08/13 02:39:08;;;;;;;32.92;25.77;;;20.70;99.90;;;;;;5028213;28;20449;-73
2021/08/13 02:41:36;;;;;;;26.20;20.77;;;20.70;99.90;;;;;;5045484;28;20413;-72
2021/08/13 02:44:04;;;;;;;25.02;21.23;;;20.70;99.90;;;;;;5042979;28;20017;-72
2021/08/13 02:46:44;;;;;;;24.75;20.13;;;20.70;99.90;;;;;;5047434;28;20025;-72
2021/08/13 02:49:11;;;;;;;29.88;23.55;;;20.70;99.90;;;;;;5041665;28;20152;-72
2021/08/13 02:51:40;;;;;;;33.10;25.80;;;20.70;99.90;;;;;;5042990;28;20108;-73
2021/08/13 02:54:11;;;;;;;34.85;26.45;;;20.70;99.90;;;;;;5049246;28;20025;-73
2021/08/13 02:56:38;;;;;;;31.67;27.20;;;20.70;99.90;;;;;;5048185;28;20021;-73
2021/08/13 02:59:07;;;;;;;34.70;28.02;;;20.60;99.90;;;;;;5044775;28;20108;-73
2021/08/13 03:01:37;;;;;;;32.75;27.30;;;20.60;99.90;;;;;;5045778;28;20037;-73
2021/08/13 03:04:07;;;;;;;33.88;26.92;;;20.60;99.90;;;;;;5038814;28;20014;-73
2021/08/13 03:06:39;;;;;;;40.55;31.08;;;20.60;99.90;;;;;;5042704;28;20052;-72
2021/08/13 03:09:06;;;;;;;36.65;27.25;;;20.60;99.90;;;;;;5043117;28;20488;-72
2021/08/13 03:11:34;;;;;;;43.97;30.20;;;20.60;99.90;;;;;;5047940;28;20029;-72
2021/08/13 03:14:01;;;;;;;34.67;28.08;;;20.60;99.90;;;;;;5044558;28;20116;-72
2021/08/13 03:16:27;;;;;;;38.05;29.80;;;20.60;99.90;;;;;;5029519;28;20477;-72
2021/08/13 03:18:55;;;;;;;39.38;28.98;;;20.50;99.90;;;;;;5047196;28;20511;-72
2021/08/13 03:21:21;;;;;;;36.53;29.88;;;20.50;99.90;;;;;;5042990;28;20080;-73
2021/08/13 03:23:47;;;;;;;42.38;29.83;;;20.50;99.90;;;;;;5042198;28;20020;-72
2021/08/13 03:26:14;;;;;;;38.15;31.48;;;20.50;99.90;;;;;;5045514;28;20036;-73
2021/08/13 03:28:39;;;;;;;40.83;29.23;;;20.50;99.90;;;;;;5043378;28;20041;-73
2021/08/13 03:31:05;;;;;;;41.55;31.05;;;20.50;99.90;;;;;;5047132;28;20100;-73
2021/08/13 03:33:31;;;;;;;47.65;34.50;;;20.50;99.90;;;;;;5046021;28;20115;-73
2021/08/13 03:35:58;;;;;;;50.83;35.17;;;20.50;99.90;;;;;;5043079;28;20017;-73
2021/08/13 03:38:24;;;;;;;56.05;35.80;;;20.50;99.90;;;;;;5039022;28;20580;-73
2021/08/13 03:40:49;;;;;;;47.38;34.40;;;20.40;99.90;;;;;;5037975;28;20017;-73
2021/08/13 03:43:15;;;;;;;46.67;33.60;;;20.40;99.90;;;;;;5043254;28;20032;-73
2021/08/13 03:45:42;;;;;;;44.72;33.00;;;20.40;99.90;;;;;;5050851;28;20028;-74
2021/08/13 03:48:07;;;;;;;47.10;32.47;;;20.40;99.90;;;;;;5042268;28;20026;-73
2021/08/13 03:50:33;;;;;;;49.35;34.53;;;20.50;99.90;;;;;;5048592;28;20444;-73
2021/08/13 03:52:59;;;;;;;49.45;35.22;;;20.50;99.90;;;;;;5044928;28;20183;-73
2021/08/13 03:55:25;;;;;;;53.53;36.47;;;20.50;99.90;;;;;;5043507;28;20497;-72
2021/08/13 03:57:50;;;;;;;52.33;37.63;;;20.40;99.90;;;;;;5040049;28;20140;-73
2021/08/13 04:00:17;;;;;;;54.50;35.85;;;20.40;99.90;;;;;;5046105;28;20032;-74
2021/08/13 04:02:42;;;;;;;53.28;36.13;;;20.40;99.90;;;;;;5044164;28;20029;-73
2021/08/13 04:05:08;;;;;;;50.85;34.95;;;20.40;99.90;;;;;;5043481;28;20025;-73
2021/08/13 04:07:34;;;;;;;54.25;36.92;;;20.40;99.90;;;;;;5044919;28;20033;-72
2021/08/13 04:10:00;;;;;;;50.30;37.63;;;20.40;99.90;;;;;;5046895;28;20032;-73
2021/08/13 04:12:25;;;;;;;56.00;39.42;;;20.40;99.90;;;;;;5039311;28;20025;-73
2021/08/13 04:14:52;;;;;;;51.20;37.45;;;20.40;99.90;;;;;;5038158;28;20033;-73
2021/08/13 04:17:18;;;;;;;54.67;36.35;;;20.40;99.90;;;;;;5047419;28;20451;-73
2021/08/13 04:19:43;;;;;;;54.22;36.05;;;20.40;99.90;;;;;;5044513;28;20097;-74
2021/08/13 04:22:09;;;;;;;50.15;33.80;;;20.40;99.90;;;;;;5043647;28;20025;-73
2021/08/13 04:24:35;;;;;;;64.05;38.60;;;20.30;99.90;;;;;;5035449;28;20540;-73
2021/08/13 04:27:01;;;;;;;54.17;36.47;;;20.30;99.90;;;;;;5044201;28;20092;-73
2021/08/13 04:29:26;;;;;;;59.75;36.80;;;20.40;99.90;;;;;;5049012;28;20084;-72
2021/08/13 04:31:52;;;;;;;56.72;37.55;;;20.40;99.90;;;;;;5047142;28;20032;-73
2021/08/13 04:34:18;;;;;;;57.20;36.67;;;20.40;99.90;;;;;;5047432;28;20032;-73
2021/08/13 04:36:44;;;;;;;59.38;38.05;;;20.40;99.90;;;;;;5044790;28;20021;-73
2021/08/13 04:39:10;;;;;;;49.65;33.60;;;20.40;99.90;;;;;;5047196;28;20437;-73
2021/08/13 04:41:35;;;;;;;56.40;37.22;;;20.40;99.90;;;;;;5047764;28;20029;-73
2021/08/13 04:44:02;;;;;;;60.60;35.45;;;20.40;99.90;;;;;;5041286;28;20052;-73
2021/08/13 04:46:27;;;;;;;52.53;34.10;;;20.40;99.90;;;;;;5044316;28;20025;-73
2021/08/13 04:48:53;;;;;;;55.25;37.13;;;20.40;99.90;;;;;;5045076;28;20120;-73
2021/08/13 04:51:19;;;;;;;53.53;35.80;;;20.40;99.90;;;;;;5045359;28;20021;-73
2021/08/13 04:53:44;;;;;;;61.22;36.90;;;20.40;99.90;;;;;;5043247;28;20540;-73
2021/08/13 04:56:10;;;;;;;60.53;37.28;;;20.40;99.90;;;;;;5046666;28;20025;-73
2021/08/13 04:58:35;;;;;;;50.60;34.95;;;20.40;99.90;;;;;;5036618;28;20026;-74
2021/08/13 05:01:01;;;;;;;54.42;34.88;;;20.40;99.90;;;;;;5048395;28;20032;-74
2021/08/13 05:03:27;;;;;;;56.10;34.30;;;20.40;99.90;;;;;;5045385;28;20087;-73
2021/08/13 05:05:53;;;;;;;53.35;34.17;;;20.40;99.90;;;;;;5044093;28;20105;-73
2021/08/13 05:08:18;;;;;;;53.97;33.70;;;20.50;99.90;;;;;;5050558;28;20524;-74
2021/08/13 05:10:44;;;;;;;54.95;35.05;;;20.40;99.90;;;;;;5044445;28;20028;-73
2021/08/13 05:13:10;;;;;;;51.20;34.38;;;20.50;99.90;;;;;;5047731;28;20025;-72
2021/08/13 05:15:35;;;;;;;46.53;32.78;;;20.50;99.90;;;;;;5049455;28;20520;-73
2021/08/13 05:18:04;;;;;;;49.05;33.92;;;20.50;99.90;;;;;;5046461;28;20477;-73
2021/08/13 05:20:29;;;;;;;46.13;30.70;;;20.50;99.90;;;;;;5045754;28;20134;-73
2021/08/13 05:22:55;;;;;;;50.67;32.80;;;20.50;99.90;;;;;;5046638;28;20108;-73
2021/08/13 05:25:21;;;;;;;56.13;34.60;;;20.50;99.90;;;;;;5050572;28;20021;-73
2021/08/13 05:27:47;;;;;;;54.03;32.95;;;20.50;99.90;;;;;;5051025;28;20053;-73
2021/08/13 05:30:14;;;;;;;51.95;32.83;;;20.60;99.90;;;;;;5050613;28;20032;-74
2021/08/13 05:32:44;;;;;;;54.17;32.47;;;20.60;99.90;;;;;;5046215;28;20036;-73
2021/08/13 05:35:10;;;;;;;48.97;31.95;;;20.50;99.90;;;;;;5045952;28;20023;-73
2021/08/13 05:37:37;;;;;;;44.08;30.50;;;20.50;99.90;;;;;;5048182;28;20036;-74
2021/08/13 05:40:08;;;;;;;48.40;31.85;;;20.60;99.90;;;;;;5056547;28;20009;-74
2021/08/13 05:42:33;;;;;;;45.10;30.05;;;20.60;99.90;;;;;;5045901;28;20032;-73
2021/08/13 05:44:59;;;;;;;41.47;28.63;;;20.60;99.90;;;;;;5041534;28;20112;-74
2021/08/13 05:47:25;;;;;;;39.90;27.40;;;20.60;99.90;;;;;;5048598;28;20038;-74
2021/08/13 05:49:50;;;;;;;36.80;24.50;;;20.60;99.90;;;;;;5048223;28;20029;-73
2021/08/13 05:52:16;;;;;;;38.05;25.10;;;20.60;99.90;;;;;;5045550;28;20103;-74
2021/08/13 05:54:41;;;;;;;30.58;22.33;;;20.60;99.90;;;;;;5047823;28;20540;-73
2021/08/13 05:57:07;;;;;;;33.03;22.63;;;20.60;99.90;;;;;;5050880;28;20071;-74
2021/08/13 05:59:33;;;;;;;37.20;23.67;;;20.60;99.90;;;;;;5048356;28;20037;-73
2021/08/13 06:01:59;;;;;;;32.17;22.08;;;20.60;99.90;;;;;;5047192;28;20057;-74
2021/08/13 06:04:25;;;;;;;29.88;22.02;;;20.60;99.90;;;;;;5046152;28;20032;-74
2021/08/13 06:06:50;;;;;;;30.95;21.38;;;20.70;99.90;;;;;;5045851;28;20017;-73
2021/08/13 06:09:16;;;;;;;30.15;19.83;;;20.70;99.90;;;;;;5044503;28;20052;-73
2021/08/13 06:11:42;;;;;;;26.77;19.83;;;20.70;99.90;;;;;;5045163;28;20096;-73
2021/08/13 06:14:08;;;;;;;29.20;19.35;;;20.70;99.90;;;;;;5042596;28;20030;-73
2021/08/13 06:16:33;;;;;;;25.52;17.55;;;20.70;99.90;;;;;;5042124;28;20032;-74
2021/08/13 06:18:59;;;;;;;25.65;18.27;;;20.70;99.90;;;;;;5043109;28;20037;-74
2021/08/13 06:21:25;;;;;;;25.70;17.42;;;20.80;99.90;;;;;;5042906;28;20108;-74
2021/08/13 06:23:51;;;;;;;23.02;16.60;;;20.70;99.90;;;;;;5049351;28;20095;-73
2021/08/13 06:26:18;;;;;;;24.63;17.60;;;20.70;99.90;;;;;;5042055;28;20017;-74
2021/08/13 06:28:43;;;;;;;21.48;16.15;;;20.70;99.90;;;;;;5047215;28;20519;-74
2021/08/13 06:31:09;;;;;;;22.75;16.55;;;20.70;99.90;;;;;;5046779;28;20493;-74
2021/08/13 06:33:34;;;;;;;24.85;16.10;;;20.70;99.90;;;;;;5042115;28;20420;-73
2021/08/13 06:36:00;;;;;;;32.28;14.55;;;20.60;99.90;;;;;;5047437;28;20040;-74
2021/08/13 06:38:26;;;;;;;22.90;15.73;;;20.70;99.90;;;;;;5042919;28;20029;-74
2021/08/13 06:40:51;;;;;;;22.58;16.33;;;20.80;99.90;;;;;;5048912;28;20024;-74
2021/08/13 06:43:17;;;;;;;19.05;15.15;;;20.70;99.90;;;;;;5044721;28;20533;-74
2021/08/13 06:45:42;;;;;;;27.58;15.27;;;20.80;99.90;;;;;;5048078;28;20025;-74
2021/08/13 06:48:08;;;;;;;21.40;13.65;;;20.90;99.90;;;;;;5041875;28;20123;-73
2021/08/13 06:50:34;;;;;;;18.85;13.43;;;21.00;99.90;;;;;;5027738;28;20500;-74
2021/08/13 06:53:00;;;;;;;18.55;13.15;;;21.00;99.90;;;;;;5043131;28;20901;-74
2021/08/13 06:55:25;;;;;;;20.15;13.77;;;20.80;99.90;;;;;;5051673;28;20048;-74
2021/08/13 06:57:51;;;;;;;17.83;11.65;;;20.90;99.90;;;;;;5045797;28;20554;-74
2021/08/13 07:00:17;;;;;;;16.80;12.25;;;20.90;99.90;;;;;;5019367;28;20030;-74
2021/08/13 07:02:49;;;;;;;18.13;11.93;;;20.90;99.90;;;;;;5043955;28;20052;-78
2021/08/13 07:05:16;;;;;;;17.23;11.25;;;21.00;99.90;;;;;;5043992;28;20025;-74
2021/08/13 07:07:42;;;;;;;14.65;11.20;;;21.00;99.90;;;;;;5045368;28;20021;-74
2021/08/13 07:10:10;;;;;;;13.50;10.52;;;21.10;99.90;;;;;;5050450;28;20044;-74
2021/08/13 07:12:37;;;;;;;17.38;11.00;;;21.10;99.90;;;;;;5040144;28;20697;-76
2021/08/13 07:15:05;;;;;;;14.63;9.85;;;21.10;99.90;;;;;;5048501;28;20052;-75
2021/08/13 07:17:30;;;;;;;13.65;10.07;;;21.00;99.90;;;;;;5028702;28;20104;-74
2021/08/13 07:19:56;;;;;;;12.50;9.85;;;21.10;99.90;;;;;;5043237;28;20104;-74
2021/08/13 07:22:22;;;;;;;10.73;9.38;;;21.10;99.90;;;;;;5048952;28;20103;-74
2021/08/13 07:24:47;;;;;;;14.27;9.60;;;21.10;99.90;;;;;;5045416;28;20060;-75
2021/08/13 07:27:13;;;;;;;14.23;9.75;;;21.20;99.90;;;;;;5045539;28;20020;-74
2021/08/13 07:29:38;;;;;;;12.43;9.00;;;21.10;99.90;;;;;;5043319;28;20430;-74
2021/08/13 07:32:04;;;;;;;14.45;9.52;;;21.00;99.90;;;;;;5045544;28;20351;-73
2021/08/13 07:34:30;;;;;;;13.13;7.88;;;21.00;99.90;;;;;;5045183;28;20025;-74
2021/08/13 07:36:55;;;;;;;12.55;8.52;;;21.10;99.90;;;;;;5050032;28;20044;-74
2021/08/13 07:39:21;;;;;;;12.75;8.88;;;21.10;99.90;;;;;;5040878;28;20532;-74
2021/08/13 07:41:46;;;;;;;14.10;8.85;;;21.20;99.90;;;;;;5042862;28;20032;-74
2021/08/13 07:44:12;;;;;;;11.68;7.88;;;21.30;99.90;;;;;;5046459;28;20029;-74
2021/08/13 07:46:38;;;;;;;11.73;7.93;;;21.40;99.90;;;;;;5047905;28;20037;-74
2021/08/13 07:49:03;;;;;;;11.45;8.63;;;21.50;99.90;;;;;;5048781;28;20049;-74
2021/08/13 07:51:29;;;;;;;11.77;8.50;;;21.60;99.90;;;;;;5054558;28;20028;-75
2021/08/13 07:53:55;;;;;;;11.13;8.13;;;21.70;99.90;;;;;;5048018;28;20388;-74
2021/08/13 07:56:20;;;;;;;14.48;9.32;;;21.80;99.90;;;;;;5047469;28;20025;-79
2021/08/13 07:58:46;;;;;;;11.32;8.35;;;21.80;99.90;;;;;;5049740;28;20469;-78
2021/08/13 08:01:11;;;;;;;11.05;7.03;;;21.90;99.90;;;;;;5038734;28;20056;-79
2021/08/13 08:03:37;;;;;;;9.95;6.97;;;21.90;99.90;;;;;;5044180;28;20028;-77
2021/08/13 08:06:06;;;;;;;10.55;7.38;;;22.00;99.90;;;;;;5041883;28;20021;-80
2021/08/13 08:08:32;;;;;;;10.40;6.57;;;22.10;99.90;;;;;;5047824;28;20032;-79
2021/08/13 08:10:58;;;;;;;8.25;5.65;;;22.10;99.90;;;;;;5047584;28;20072;-80
2021/08/13 08:13:24;;;;;;;6.60;5.40;;;22.20;99.90;;;;;;5049872;28;20037;-77
2021/08/13 08:15:49;;;;;;;8.80;5.60;;;22.20;99.90;;;;;;5045273;28;20099;-79
2021/08/13 08:18:19;;;;;;;7.78;5.50;;;22.30;99.90;;;;;;5045799;28;20027;-78
2021/08/13 08:20:45;;;;;;;7.43;5.57;;;22.30;99.90;;;;;;5039441;28;20031;-76
2021/08/13 08:23:11;;;;;;;7.30;5.22;;;22.40;99.90;;;;;;5039402;28;20075;-79
2021/08/13 08:25:38;;;;;;;6.70;4.75;;;22.40;99.90;;;;;;5042137;28;20560;-79
2021/08/13 08:28:04;;;;;;;9.63;5.65;;;22.50;99.90;;;;;;5043675;28;20024;-80
2021/08/13 08:30:30;;;;;;;8.05;5.43;;;22.60;99.90;;;;;;5040278;28;20101;-79
2021/08/13 08:32:56;;;;;;;9.82;6.97;;;22.60;99.90;;;;;;5039522;28;20445;-82
2021/08/13 08:35:22;;;;;;;7.72;5.53;;;22.50;99.90;;;;;;5046383;28;20388;-78
2021/08/13 08:37:56;;;;;;;6.35;4.90;;;22.60;99.90;;;;;;5050350;28;20025;-81
2021/08/13 08:40:31;;;;;;;9.02;5.13;;;22.70;99.90;;;;;;5042077;28;20087;-79
2021/08/13 08:43:00;;;;;;;6.25;4.82;;;22.70;99.90;;;;;;5046587;28;20493;-79
2021/08/13 08:45:31;;;;;;;7.07;4.78;;;22.80;99.90;;;;;;5051719;28;20432;-79
2021/08/13 08:48:00;;;;;;;6.25;4.95;;;23.00;99.90;;;;;;5048353;28;20048;-80
2021/08/13 08:50:29;;;;;;;6.30;4.63;;;23.00;99.90;;;;;;5047037;28;20025;-79
2021/08/13 08:52:57;;;;;;;6.90;4.22;;;23.00;99.90;;;;;;5046898;28;20013;-79
2021/08/13 08:55:24;;;;;;;8.70;4.70;;;23.10;99.90;;;;;;5050679;28;20028;-79
2021/08/13 08:57:56;;;;;;;5.45;4.40;;;23.10;99.90;;;;;;5043083;28;20029;-78
2021/08/13 09:00:22;;;;;;;6.30;4.05;;;23.20;99.90;;;;;;5042804;28;20453;-80
2021/08/13 09:02:48;;;;;;;5.68;3.85;;;23.20;99.90;;;;;;5050372;28;20476;-79
2021/08/13 09:05:14;;;;;;;8.98;4.03;;;23.20;99.90;;;;;;5047481;28;20029;-80
2021/08/13 09:07:40;;;;;;;6.53;4.78;;;23.30;99.90;;;;;;5035082;28;20046;-80
2021/08/13 09:10:08;;;;;;;5.78;4.78;;;23.30;99.90;;;;;;5046981;28;20417;-79
2021/08/13 09:12:34;;;;;;;9.95;4.82;;;23.20;99.90;;;;;;5043406;28;20400;-80
2021/08/13 09:15:00;;;;;;;6.18;4.07;;;23.30;99.90;;;;;;5047304;28;20040;-78
2021/08/13 09:17:30;;;;;;;8.10;4.53;;;23.30;99.90;;;;;;5052275;28;20025;-79
2021/08/13 09:19:56;;;;;;;5.43;3.70;;;23.30;99.90;;;;;;5047982;28;20021;-79
2021/08/13 09:22:22;;;;;;;4.40;3.85;;;23.40;99.90;;;;;;5042180;28;20101;-80
2021/08/13 09:24:51;;;;;;;5.05;4.13;;;23.40;99.90;;;;;;5018148;28;20091;-81
2021/08/13 09:27:23;;;;;;;6.43;4.25;;;23.40;99.90;;;;;;5051933;28;20029;-76
2021/08/13 09:30:15;;;;;;;5.88;4.18;;;23.70;99.90;;;;;;5047340;28;20088;-76
2021/08/13 09:32:43;;;;;;;8.48;3.85;;;23.80;99.90;;;;;;5034150;28;20029;-78
2021/08/13 09:35:12;;;;;;;7.03;3.03;;;23.90;99.90;;;;;;5048808;28;20017;-76
2021/08/13 09:37:38;;;;;;;4.95;3.35;;;24.10;99.90;;;;;;5051212;28;20033;-76
2021/08/13 09:40:05;;;;;;;4.13;3.47;;;24.30;99.90;;;;;;5051285;28;20108;-78
2021/08/13 09:42:36;;;;;;;5.03;3.35;;;24.20;99.90;;;;;;5053244;28;20036;-75
2021/08/13 09:45:07;;;;;;;4.43;3.33;;;24.30;99.90;;;;;;5041960;28;20108;-74
2021/08/13 09:47:45;;;;;;;6.25;3.42;;;24.30;99.90;;;;;;5037324;28;20035;-76
2021/08/13 09:50:13;;;;;;;3.75;3.38;;;24.50;99.90;;;;;;5040040;28;20554;-75
2021/08/13 09:52:39;;;;;;;6.78;3.65;;;24.50;99.90;;;;;;5043476;28;20064;-80
2021/08/13 09:55:14;;;;;;;4.90;3.60;;;24.50;99.90;;;;;;5050566;28;20053;-74
2021/08/13 09:57:42;;;;;;;5.47;3.70;;;24.40;99.90;;;;;;5045500;28;20033;-75
2021/08/13 10:00:10;;;;;;;8.05;3.55;;;24.50;99.90;;;;;;5050101;28;20060;-75
2021/08/13 10:02:40;;;;;;;4.65;3.63;;;24.70;99.90;;;;;;5041261;28;20207;-80
2021/08/13 10:05:22;;;;;;;4.40;3.42;;;24.60;99.90;;;;;;5045289;28;20029;-82
2021/08/13 10:07:53;;;;;;;8.13;2.88;;;24.70;99.90;;;;;;5052204;28;20033;-77
2021/08/13 10:10:38;;;;;;;6.15;3.60;;;24.80;99.90;;;;;;5048481;28;20009;-77
2021/08/13 10:13:05;;;;;;;4.80;3.20;;;24.70;99.90;;;;;;5047324;28;20040;-75
2021/08/13 10:15:38;;;;;;;4.28;3.38;;;24.70;99.90;;;;;;5036790;28;20026;-75
2021/08/13 10:18:07;;;;;;;4.97;3.45;;;24.80;99.90;;;;;;5050194;28;20094;-75
2021/08/13 10:20:36;;;;;;;5.97;3.90;;;25.00;99.90;;;;;;5039785;28;20103;-75
2021/08/13 10:23:02;;;;;;;9.82;4.10;;;25.10;99.90;;;;;;5044759;28;20017;-76
2021/08/13 10:25:28;;;;;;;3.97;3.38;;;25.00;99.90;;;;;;5048089;28;20481;-74
2021/08/13 10:27:54;;;;;;;6.20;3.60;;;25.00;99.90;;;;;;5047702;28;20106;-81
2021/08/13 10:30:22;;;;;;;8.02;3.92;;;25.00;99.90;;;;;;5047751;28;20799;-74
2021/08/13 10:32:51;;;;;;;4.82;3.72;;;25.10;99.90;;;;;;5048681;28;20112;-75
2021/08/13 10:35:17;;;;;;;6.25;4.45;;;25.10;99.90;;;;;;5027771;28;20025;-74
2021/08/13 10:37:42;;;;;;;5.13;3.53;;;25.20;99.90;;;;;;5044782;28;20384;-74
2021/08/13 10:40:09;;;;;;;6.03;3.65;;;25.30;99.90;;;;;;5046689;28;20398;-74
2021/08/13 10:42:45;;;;;;;7.07;4.15;;;25.40;99.90;;;;;;5044290;28;20029;-74
2021/08/13 10:45:18;;;;;;;4.97;4.07;;;25.30;99.90;;;;;;5045879;28;20472;-73
2021/08/13 10:47:56;;;;;;;4.97;3.78;;;25.20;99.90;;;;;;5040419;28;20412;-72
2021/08/13 10:50:22;;;;;;;5.25;4.00;;;25.20;99.90;;;;;;5028911;28;20029;-72
2021/08/13 10:52:47;;;;;;;5.03;3.60;;;25.00;99.90;;;;;;5033640;28;20032;-74
2021/08/13 10:55:41;;;;;;;4.40;3.60;;;25.00;99.90;;;;;;5046058;28;20021;-80
2021/08/13 10:58:08;;;;;;;8.50;4.30;;;25.40;99.90;;;;;;5041889;28;20032;-74
2021/08/13 11:01:02;;;;;;;5.85;3.88;;;25.50;99.90;;;;;;5042801;28;20087;-74
2021/08/13 11:03:28;;;;;;;4.93;3.30;;;25.40;99.90;;;;;;5037621;28;20084;-74
2021/08/13 11:05:59;;;;;;;6.20;3.65;;;25.30;99.90;;;;;;5042187;28;20034;-74
2021/08/13 11:08:40;;;;;;;6.55;3.75;;;25.30;99.90;;;;;;5038638;28;20060;-75
2021/08/13 11:11:13;;;;;;;6.20;3.30;;;25.40;99.90;;;;;;5042645;28;20508;-74
2021/08/13 11:13:43;;;;;;;6.25;3.75;;;25.50;99.90;;;;;;5040507;28;20060;-74
2021/08/13 11:16:27;;;;;;;6.38;3.65;;;25.50;99.90;;;;;;5039208;28;20025;-75
2021/08/13 11:19:01;;;;;;;4.90;3.92;;;25.70;99.90;;;;;;5046333;28;20090;-74
2021/08/13 11:21:33;;;;;;;5.60;3.97;;;25.70;99.90;;;;;;5045713;28;20032;-74
2021/08/13 11:24:01;;;;;;;8.23;4.18;;;25.60;99.90;;;;;;5042848;28;20021;-75
2021/08/13 11:26:58;;;;;;;7.65;4.20;;;25.70;99.90;;;;;;5041937;28;20083;-74
2021/08/13 11:29:29;;;;;;;9.35;4.68;;;25.50;99.90;;;;;;5046470;28;20381;-75
2021/08/13 11:32:10;;;;;;;5.50;4.60;;;25.40;99.90;;;;;;5043607;28;20079;-74
2021/08/13 11:34:58;;;;;;;8.93;5.05;;;25.40;99.90;;;;;;5040297;28;20029;-74
2021/08/13 11:37:41;;;;;;;7.35;4.13;;;25.30;99.90;;;;;;5046389;28;20044;-74
2021/08/13 11:40:13;;;;;;;6.15;4.20;;;25.40;99.90;;;;;;5046627;28;20472;-74
2021/08/13 11:42:46;;;;;;;9.07;5.15;;;25.30;99.80;;;;;;5043839;28;20033;-74
2021/08/13 11:45:12;;;;;;;5.90;4.50;;;25.20;99.90;;;;;;5042428;28;20068;-74
2021/08/13 11:47:48;;;;;;;6.85;4.47;;;25.30;99.90;;;;;;5044266;28;20029;-74
2021/08/13 11:50:15;;;;;;;4.97;4.18;;;25.10;98.90;;;;;;5033914;28;20021;-75
2021/08/13 11:52:48;;;;;;;12.52;5.05;;;25.00;97.80;;;;;;5044691;28;20024;-74
2021/08/13 11:55:27;;;;;;;7.22;4.80;;;25.00;98.40;;;;;;5028004;28;20385;-74
2021/08/13 11:57:54;;;;;;;11.10;5.18;;;25.10;98.50;;;;;;5032880;28;20025;-74
2021/08/13 12:00:26;;;;;;;8.38;5.15;;;25.20;98.80;;;;;;5044035;28;20500;-74
2021/08/13 12:03:03;;;;;;;8.40;4.93;;;25.10;98.50;;;;;;5038777;28;20477;-75
2021/08/13 12:05:31;;;;;;;7.00;4.57;;;25.10;96.60;;;;;;5030768;28;20029;-75
2021/08/13 12:08:06;;;;;;;7.45;5.05;;;25.20;97.60;;;;;;5033833;28;20108;-75
2021/08/13 12:10:33;;;;;;;8.23;5.00;;;25.20;98.20;;;;;;5049443;28;20029;-74
2021/08/13 12:13:08;;;;;;;7.75;4.60;;;25.40;97.20;;;;;;5052652;28;20041;-75
2021/08/13 12:15:39;;;;;;;7.15;4.88;;;25.30;95.90;;;;;;5046615;28;20025;-75
2021/08/13 12:18:06;;;;;;;8.18;5.05;;;25.20;97.20;;;;;;5049948;28;20469;-75
2021/08/13 12:20:34;;;;;;;6.65;4.63;;;25.20;96.70;;;;;;5051682;28;20043;-75
2021/08/13 12:23:09;;;;;;;7.25;5.18;;;25.30;97.90;;;;;;5038678;28;20497;-76
2021/08/13 13:25:45;;;;;;;7.45;5.13;;;24.10;97.40;;;;;;5150801;27;20361;-74
2021/08/13 13:28:13;;;;;;;9.88;5.40;;;24.50;96.90;;;;;;5141377;27;20556;-76
2021/08/13 13:30:47;;;;;;;6.55;5.10;;;24.80;95.00;;;;;;5147114;27;20031;-76
2021/08/13 13:33:22;;;;;;;7.82;4.93;;;24.90;94.70;;;;;;5141289;27;20497;-76
2021/08/13 13:35:55;;;;;;;10.60;5.55;;;25.00;93.20;;;;;;5148334;27;20041;-76
2021/08/13 13:38:28;;;;;;;7.97;5.75;;;25.10;94.30;;;;;;5145849;27;20122;-76
2021/08/13 13:40:54;;;;;;;9.07;5.00;;;25.20;93.90;;;;;;5139546;27;20016;-76